Terminal Aerodrome Forecast
Issued by NWS North Platte, NE

Home | Current Version | Previous Version | Graphics & Text | Print | Product List | Glossary On
Versions: 1 2 3 4 5 6 7 8 9 10 11 12 13
375
FTUS43 KLBF 281139
TAFVTN
TAF
KVTN 281139Z 2812/2912 24010KT P6SM SKC
     FM281500 32012KT P6SM FEW250
     FM290000 03008KT P6SM SCT250
     FM290300 08008KT P6SM SCT050 BKN100 BKN250 PROB30 2904/2908
      P6SM -TSRA BKN050CB OVC100
     FM290800 05008KT P6SM BKN100 BKN250=

USA.gov is the U.S. government's official web portal to all federal, state and local government web resources and services.